Flag for France

Past Weather in Carcassonne, Occitanie, France — Yesterday and Last 2 Weeks

Currently: 59 °F. Passing clouds. (Weather station: Carcassonne Airport, France). See more current weather

Past Weather in Carcassonne — Graph

°F

Carcassonne Temperature Yesterday

Maximum temperature yesterday: 63 °F (at 2:30 pm)
Minimum temperature yesterday: 41 °F (at 7:30 am)
Average temperature yesterday: 51 °F

High & Low Weather Summary for the Past Weeks

 TemperatureHumidityPressure
High66 °F (Nov 15, 3:00 pm)100% (Nov 18, 11:30 pm)30.60 "Hg (Nov 18, 11:30 pm)
Low28 °F (Nov 23, 7:30 am)51% (Nov 21, 4:30 pm)29.77 "Hg (Nov 28, 12:30 pm)
Average50 °F84%30.21 "Hg
* Reported Nov 15 3:00 pm — Nov 30 3:00 pm, Carcassonne. Weather by CustomWeather, © 2020

Note: Actual official high and low records may vary slightly from our data, if they occured in-between our weather recording intervals... More about our weather records

Carcassonne Weather History for the Previous 24 Hours

Scroll right to see more
 ConditionsComfort  
Time TempWeatherWind HumidityBarometerVisibility
3:00 pm
Mon, Nov 30
59 °FSunny.14 mph68%30.18 "Hg10 mi
2:30 pm59 °FSunny.13 mph72%30.18 "Hg10 mi
2:00 pm59 °FPassing clouds.12 mph72%30.18 "HgN/A
1:30 pm57 °FPassing clouds.12 mph77%30.18 "HgN/A
1:00 pm57 °FSunny.12 mph72%30.21 "Hg10 mi
12:30 pm57 °FPassing clouds.9 mph72%30.21 "HgN/A
12:00 pm55 °FPassing clouds.10 mph77%30.21 "HgN/A
11:30 am54 °FPassing clouds.9 mph82%30.21 "HgN/A
11:00 am52 °FPassing clouds.7 mph82%30.21 "HgN/A
10:30 am50 °FSunny.7 mph94%30.21 "Hg10 mi
10:00 am46 °FSunny.3 mph100%30.21 "Hg10 mi
9:30 am43 °FSunny.2 mph100%30.21 "Hg10 mi
9:00 am41 °FSunny.2 mph100%30.18 "Hg10 mi
8:30 am39 °FClear.2 mph100%30.18 "Hg5 mi
8:00 am39 °FClear.2 mph93%30.18 "Hg4 mi
7:30 am39 °FClear.3 mph100%30.15 "Hg10 mi
7:00 am39 °FClear.1 mph93%30.15 "Hg10 mi
6:30 am39 °FClear.2 mph93%30.15 "Hg5 mi
6:00 am39 °FClear.3 mph100%30.15 "Hg5 mi
5:30 am39 °FClear.3 mph100%30.15 "Hg4 mi
5:00 am41 °FClear.2 mph93%30.12 "Hg6 mi
4:30 am41 °FClear.3 mph93%30.12 "Hg6 mi
3:30 am41 °FClear.2 mph93%30.12 "Hg5 mi
3:00 am41 °FClear.2 mph100%30.12 "Hg6 mi
2:30 am41 °FClear.2 mph93%30.12 "Hg5 mi
2:00 am41 °FClear.2 mph100%30.12 "Hg10 mi
1:30 am41 °FClear.2 mph100%30.12 "Hg6 mi
1:00 am41 °FClear.3 mph100%30.12 "Hg5 mi
12:30 am43 °FClear.1 mph100%30.09 "Hg6 mi
12:00 am43 °FClear.1 mph93%30.09 "Hg6 mi
11:30 pm
Sun, Nov 29
45 °FClear.2 mph93%30.09 "Hg10 mi
11:00 pm45 °FClear.2 mph93%30.09 "Hg10 mi
10:30 pm45 °FClear.2 mph93%30.09 "Hg10 mi
10:00 pm46 °FPassing clouds.5 mph93%30.09 "HgN/A
9:30 pm46 °FPassing clouds.3 mph93%30.07 "HgN/A
9:00 pm48 °FClear.2 mph87%30.07 "Hg10 mi
8:30 pm50 °FClear.1 mph88%30.07 "Hg10 mi
8:00 pm52 °FClear.5 mph82%30.07 "Hg10 mi
7:30 pm54 °FClear.5 mph77%30.04 "Hg10 mi
7:00 pm54 °FPassing clouds.5 mph77%30.04 "HgN/A
6:30 pm55 °FClear.7 mph72%30.04 "Hg10 mi
6:00 pm57 °FClear.8 mph72%30.04 "Hg10 mi
5:30 pm57 °FPassing clouds.7 mph72%30.01 "HgN/A
5:00 pm59 °FPassing clouds.8 mph68%30.01 "HgN/A
4:30 pm61 °FSunny.9 mph63%30.01 "Hg10 mi
4:00 pm63 °FPassing clouds.9 mph59%30.01 "HgN/A
Weather by CustomWeather, © 2020

See weather overview